Hauptseite
METAR-TAF:

METAR-TAF

Flughäfen :

Flughafen Bonriki

Tarawa, Kiribati

Breite: 01-21N, Länge: 172-55E, Höhe: 2 m

Beobachtung

Neuester Wetterbericht von vor 42 Minuten, um 07:00 UTC
Wind 8 kt aus Nord/Nordost
Temperatur 29°C
Luftfeuchtigkeit 79%
Luftdruck 1007 hPa
Sichtweite 10 km oder mehr
Leicht bewölkt in der Höhe von 1700 ft, Towering cumulus.
Aufgelockert bewölkt in der Höhe von 2000 ft

METAR: NGTA 170700Z 03008KT 9999 FEW017TCU SCT020 29/25 Q1007

Zeit: 21:42 (07:42 UTC)

Prognose

Neuester Wetterbericht von vor 2 Stunden und 25 Minuten, um 05:17 UTC
Gültige Prognose vom 17 um 06 UTC bis 18 um 06 UTC
Wind 8 kt aus Ost/Nordost
Sichtweite 10 km oder mehr
Aufgelockert bewölkt in der Höhe von 2000 ft

TAF: NGTA 170517Z 1706/1806 07008KT 9999 SCT020

Wetterbeobachtungen und Prognosen von mehr als 4000 Flughäfen (METAR und TAF Bericht).

Die verfügbaren Stationen werden durch gelbe und rote Markierungen auf der Karte dargestellt.

Führen Sie die Maus auf sie, um den Namen der Station zu sehen.

Darauf klicken, um die Beobachtung von Wetterbeobachtungen und Prognosen zu sehen.

Um die Karte zu ändern : klicken Sie auf den grünen Tasten mit einem schwarzen Kreuz Zum Vergrößern, auf den grünen Button mit einem Gedankenstrich zu verkleinern, oder auf die grünen Pfeile für benachbarte Karten.


METAR-TAF: